Time;durP1;ratioP1;P1;durP2;ratioP2;P2;SDS_P1;SDS_P2;PMS_P1;PMS_P2;Temp;Humidity;BMP_temperature;BMP_pressure;BME280_temperature;BME280_humidity;BME280_pressure;Samples;Min_cycle;Max_cycle;Signal;HPM_P1;HPM_P2
2021/04/29 00:01:41;;;;;;;9.00;6.85;;;;;;;4.88;72.19;98926.98;1695291;82;21003;-61
2021/04/29 00:04:13;;;;;;;7.15;6.47;;;;;;;4.87;72.31;98925.83;1706243;83;21199;-62
2021/04/29 00:06:40;;;;;;;7.58;6.87;;;;;;;4.89;72.44;98916.80;1744442;80;21144;-63
2021/04/29 00:09:08;;;;;;;7.53;6.87;;;;;;;4.90;72.40;98919.75;1671943;83;21377;-62
2021/04/29 00:11:35;;;;;;;7.20;6.60;;;;;;;4.89;72.26;98908.89;1690993;82;21077;-62
2021/04/29 00:14:03;;;;;;;8.45;7.65;;;;;;;4.89;72.27;98915.48;1748939;80;21002;-63
2021/04/29 00:16:31;;;;;;;7.58;6.97;;;;;;;4.88;72.65;98911.66;1746178;80;21186;-60
2021/04/29 00:18:59;;;;;;;11.25;7.05;;;;;;;4.84;72.86;98902.40;1744004;80;21183;-61
2021/04/29 00:21:27;;;;;;;7.78;6.65;;;;;;;4.81;73.24;98906.64;1770390;80;22993;-62
2021/04/29 00:23:54;;;;;;;7.58;6.42;;;;;;;4.79;73.66;98906.80;1802007;79;21116;-61
2021/04/29 00:26:22;;;;;;;7.70;7.00;;;;;;;4.77;74.02;98911.88;1770153;79;21113;-62
2021/04/29 00:28:52;;;;;;;6.80;6.20;;;;;;;4.73;73.98;98899.96;1783827;79;21124;-62
2021/04/29 00:31:22;;;;;;;7.42;6.72;;;;;;;4.72;73.76;98903.59;1786604;79;21112;-62
2021/04/29 00:33:50;;;;;;;7.72;6.92;;;;;;;4.72;73.93;98900.44;1795968;79;21353;-61
2021/04/29 00:36:19;;;;;;;9.80;7.35;;;;;;;4.69;73.93;98908.64;1725214;82;21045;-60
2021/04/29 00:38:47;;;;;;;8.78;6.65;;;;;;;4.66;73.89;98900.22;1731616;81;21094;-61
2021/04/29 00:41:14;;;;;;;7.28;6.17;;;;;;;4.63;74.06;98909.25;1738548;82;21215;-61
2021/04/29 00:43:42;;;;;;;6.22;5.65;;;;;;;4.63;74.06;98905.77;1758458;79;21132;-61
2021/04/29 00:46:13;;;;;;;6.60;5.97;;;;;;;4.62;74.07;98913.33;1802599;79;21377;-62
2021/04/29 00:48:41;;;;;;;7.20;6.58;;;;;;;4.62;74.07;98906.73;1768086;80;21227;-62
2021/04/29 00:51:10;;;;;;;7.90;7.22;;;;;;;4.62;74.04;98904.10;1789653;79;21196;-61
2021/04/29 00:53:42;;;;;;;7.03;6.42;;;;;;;4.63;74.12;98900.50;1778727;79;21151;-62
2021/04/29 00:56:10;;;;;;;7.15;6.55;;;;;;;4.60;74.39;98897.67;1725336;82;21673;-62
2021/04/29 00:58:38;;;;;;;8.00;7.30;;;;;;;4.57;74.51;98897.13;1728778;81;21365;-61
2021/04/29 01:01:06;;;;;;;7.90;6.80;;;;;;;4.56;74.76;98893.69;1689897;83;21149;-62
2021/04/29 01:03:46;;;;;;;6.58;5.95;;;;;;;4.55;74.88;98895.14;1749187;81;21077;-61
2021/04/29 01:06:22;;;;;;;7.70;6.92;;;;;;;4.55;75.07;98889.39;1717206;82;21128;-62
2021/04/29 01:08:58;;;;;;;6.90;6.20;;;;;;;4.56;75.38;98887.59;1771067;80;21134;-62
2021/04/29 01:11:28;;;;;;;6.58;5.92;;;;;;;4.54;75.76;98885.08;1773577;80;21434;-63
2021/04/29 01:13:57;;;;;;;8.78;6.35;;;;;;;4.53;75.93;98890.51;1761782;79;20965;-61
2021/04/29 01:16:24;;;;;;;7.75;7.05;;;;;;;4.52;76.06;98888.36;1751621;80;20930;-61
2021/04/29 01:18:54;;;;;;;7.12;6.53;;;;;;;4.49;76.28;98880.73;1792211;79;21136;-61
2021/04/29 01:21:21;;;;;;;8.00;6.35;;;;;;;4.49;76.33;98878.11;1727637;82;21031;-62
2021/04/29 01:24:16;;;;;;;6.95;6.30;;;;;;;4.49;76.65;98876.79;1793375;79;21415;-61
2021/04/29 01:26:50;;;;;;;6.33;5.72;;;;;;;4.50;76.67;98873.19;1791505;79;21112;-62
2021/04/29 01:29:23;;;;;;;6.25;5.70;;;;;;;4.52;76.69;98870.40;1781731;79;20930;-62
2021/04/29 01:31:52;;;;;;;7.65;6.92;;;;;;;4.54;76.57;98869.27;1790771;79;21116;-62
2021/04/29 01:34:22;;;;;;;6.37;5.83;;;;;;;4.53;76.46;98863.69;1782703;79;21120;-62
2021/04/29 01:36:52;;;;;;;7.15;6.53;;;;;;;4.51;76.45;98859.02;1774431;80;22281;-63
2021/04/29 01:39:19;;;;;;;7.10;6.40;;;;;;;4.50;76.43;98869.72;1805300;79;21602;-63
2021/04/29 01:41:49;;;;;;;7.20;6.42;;;;;;;4.50;76.43;98865.77;1806794;79;20942;-63
2021/04/29 01:44:18;;;;;;;6.65;5.95;;;;;;;4.50;76.48;98859.19;1793316;79;20938;-62
2021/04/29 01:46:46;;;;;;;7.05;5.95;;;;;;;4.50;76.85;98860.50;1762255;80;21570;-62
2021/04/29 01:49:14;;;;;;;6.53;5.92;;;;;;;4.50;76.79;98852.12;1735928;80;21381;-62
2021/04/29 01:51:42;;;;;;;7.25;6.10;;;;;;;4.51;76.73;98859.54;1688006;82;21090;-62
2021/04/29 01:54:11;;;;;;;7.30;6.60;;;;;;;4.52;76.84;98859.38;1754895;80;21617;-62
2021/04/29 01:56:39;;;;;;;7.25;6.50;;;;;;;4.52;76.94;98862.02;1769465;81;21172;-62
2021/04/29 01:59:07;;;;;;;7.00;6.30;;;;;;;4.52;77.07;98864.65;1772233;80;21210;-63
2021/04/29 02:01:39;;;;;;;7.70;6.90;;;;;;;4.53;77.08;98855.78;1739179;80;21374;-62
2021/04/29 02:04:07;;;;;;;8.18;7.30;;;;;;;4.55;77.14;98859.09;1760322;79;21175;-62
2021/04/29 02:06:41;;;;;;;8.15;6.72;;;;;;;4.57;77.10;98862.40;1729873;82;21623;-63
2021/04/29 02:09:09;;;;;;;7.75;6.97;;;;;;;4.58;77.37;98860.12;1700248;82;21240;-62
2021/04/29 02:11:59;;;;;;;7.95;7.17;;;;;;;4.58;77.27;98861.44;1760552;80;21069;-63
2021/04/29 02:14:39;;;;;;;7.75;7.05;;;;;;;4.59;77.40;98847.27;1732852;80;21364;-62
2021/04/29 02:17:36;;;;;;;9.83;7.40;;;;;;;4.59;77.37;98853.05;1758640;80;21073;-62
2021/04/29 02:20:06;;;;;;;6.58;5.97;;;;;;;4.59;77.43;98846.47;1735066;79;20925;-61
2021/04/29 02:22:34;;;;;;;6.03;5.50;;;;;;;4.57;77.54;98843.95;1722099;82;21120;-64
2021/04/29 02:25:01;;;;;;;7.15;6.42;;;;;;;4.54;77.85;98831.56;1780632;79;21136;-63
2021/04/29 02:27:29;;;;;;;7.10;6.15;;;;;;;4.53;77.83;98837.83;1760977;79;21452;-63
2021/04/29 02:29:56;;;;;;;7.53;6.83;;;;;;;4.48;78.18;98834.33;1742973;82;21084;-62
2021/04/29 02:32:23;;;;;;;7.80;6.85;;;;;;;4.45;78.41;98832.46;1763901;79;21125;-62
2021/04/29 02:34:52;;;;;;;7.22;6.53;;;;;;;4.44;78.61;98833.42;1790391;79;21212;-63
2021/04/29 02:37:19;;;;;;;6.70;6.10;;;;;;;4.42;78.69;98828.31;1768618;79;21197;-63
2021/04/29 02:39:47;;;;;;;8.65;5.50;;;;;;;4.41;78.72;98833.23;1742735;82;21205;-64
2021/04/29 02:42:14;;;;;;;7.00;5.95;;;;;;;4.41;78.79;98830.59;1742895;82;20994;-62
2021/04/29 02:44:42;;;;;;;6.85;6.25;;;;;;;4.41;78.81;98831.91;1801709;79;21161;-61
2021/04/29 02:47:09;;;;;;;7.55;6.37;;;;;;;4.40;78.89;98832.08;1768021;79;21155;-62
2021/04/29 02:49:36;;;;;;;7.20;5.92;;;;;;;4.36;78.92;98837.63;1749493;79;21082;-60
2021/04/29 02:52:05;;;;;;;7.47;6.78;;;;;;;4.35;79.08;98832.52;1752189;80;22839;-64
2021/04/29 02:54:34;;;;;;;9.53;6.08;;;;;;;4.33;79.25;98832.65;1765884;79;21176;-61
2021/04/29 02:57:02;;;;;;;6.97;6.20;;;;;;;4.33;79.54;98829.19;1789818;79;20971;-60
2021/04/29 02:59:29;;;;;;;6.60;5.92;;;;;;;4.34;79.78;98829.05;1770686;79;21200;-61
2021/04/29 03:01:57;;;;;;;7.53;6.85;;;;;;;4.37;79.89;98829.25;1779807;79;21085;-62
2021/04/29 03:04:25;;;;;;;7.00;6.40;;;;;;;4.40;80.09;98832.91;1688175;82;21450;-62
2021/04/29 03:06:54;;;;;;;7.28;6.50;;;;;;;4.41;80.31;98826.64;1732897;80;21582;-61
2021/04/29 03:09:22;;;;;;;7.58;6.62;;;;;;;4.42;80.73;98825.69;1713736;82;21148;-61
2021/04/29 03:11:50;;;;;;;8.68;6.87;;;;;;;4.47;81.07;98827.38;1758620;79;21117;-62
2021/04/29 03:14:18;;;;;;;7.97;6.25;;;;;;;4.53;81.35;98830.76;1750248;80;21125;-62
2021/04/29 03:16:45;;;;;;;6.87;6.20;;;;;;;4.61;81.64;98830.84;1717658;81;21440;-62
2021/04/29 03:19:13;;;;;;;6.87;6.28;;;;;;;4.72;81.97;98830.61;1745379;79;21157;-62
2021/04/29 03:21:41;;;;;;;7.50;6.80;;;;;;;4.84;82.07;98825.48;1726903;81;21261;-61
2021/04/29 03:24:09;;;;;;;7.17;6.53;;;;;;;4.95;82.00;98829.20;1771613;80;21232;-62
2021/04/29 03:26:36;;;;;;;7.65;6.90;;;;;;;5.04;81.83;98822.69;1752033;80;21080;-62
2021/04/29 03:29:04;;;;;;;10.03;8.15;;;;;;;5.10;81.96;98825.56;1716588;83;21407;-62
2021/04/29 03:31:32;;;;;;;8.68;7.47;;;;;;;5.18;81.82;98832.22;1705223;83;21134;-62
2021/04/29 03:34:00;;;;;;;7.60;6.90;;;;;;;5.26;81.99;98824.38;1737938;82;21161;-61
2021/04/29 03:36:27;;;;;;;7.95;7.22;;;;;;;5.35;81.68;98823.94;1745831;82;21078;-63
2021/04/29 03:38:55;;;;;;;8.53;7.58;;;;;;;5.44;81.60;98818.59;1745329;82;21100;-61
2021/04/29 03:41:24;;;;;;;8.40;7.50;;;;;;;5.53;81.73;98819.45;1731689;82;21415;-62
2021/04/29 03:43:52;;;;;;;7.17;6.53;;;;;;;5.61;81.58;98816.39;1742308;82;21217;-62
2021/04/29 03:46:20;;;;;;;6.80;6.10;;;;;;;5.71;82.03;98820.23;1745808;82;21027;-63
2021/04/29 03:48:47;;;;;;;9.93;6.12;;;;;;;5.79;81.99;98820.80;1745933;82;20968;-62
2021/04/29 03:51:15;;;;;;;7.78;6.97;;;;;;;5.89;81.50;98822.35;1743639;82;21579;-62
2021/04/29 03:53:42;;;;;;;7.60;6.90;;;;;;;5.97;81.50;98815.80;1740347;82;22830;-61
2021/04/29 03:56:09;;;;;;;6.87;6.28;;;;;;;6.05;81.40;98836.97;1745510;82;21215;-61
2021/04/29 03:58:38;;;;;;;6.80;6.10;;;;;;;6.12;81.17;98822.17;1745773;82;20961;-61
2021/04/29 04:01:06;;;;;;;7.30;6.70;;;;;;;6.20;80.99;98822.19;1743599;82;21027;-62
2021/04/29 04:03:33;;;;;;;6.30;5.70;;;;;;;6.28;80.73;98825.38;1688861;83;21158;-62
2021/04/29 04:06:01;;;;;;;7.05;6.37;;;;;;;6.36;80.39;98820.63;1731921;82;21452;-62
2021/04/29 04:08:30;;;;;;;7.45;6.75;;;;;;;6.45;79.97;98824.93;1745742;82;21137;-62
2021/04/29 04:10:58;;;;;;;7.50;6.80;;;;;;;6.52;79.84;98825.94;1740542;82;21166;-62
2021/04/29 04:13:26;;;;;;;8.15;6.40;;;;;;;6.57;79.81;98825.80;1693579;83;21201;-63
2021/04/29 04:15:53;;;;;;;7.78;6.72;;;;;;;6.62;79.63;98827.45;1745811;82;21220;-62
2021/04/29 04:18:20;;;;;;;6.30;5.70;;;;;;;6.67;79.47;98821.19;1709372;82;21142;-63
2021/04/29 04:20:48;;;;;;;7.15;6.50;;;;;;;6.71;79.58;98838.40;1691670;83;21150;-63
2021/04/29 04:23:17;;;;;;;7.12;6.42;;;;;;;6.74;79.41;98830.16;1714291;81;21006;-62
2021/04/29 04:25:45;;;;;;;6.55;5.95;;;;;;;6.78;79.32;98818.25;1738036;80;21172;-61
2021/04/29 04:28:12;;;;;;;7.75;7.05;;;;;;;6.83;79.20;98825.69;1773526;80;21168;-63
2021/04/29 04:30:40;;;;;;;7.50;5.87;;;;;;;6.87;79.12;98826.20;1780364;78;21324;-63
2021/04/29 04:33:07;;;;;;;6.83;6.12;;;;;;;6.94;78.84;98835.13;1738532;82;20946;-61
2021/04/29 04:35:35;;;;;;;6.17;5.58;;;;;;;6.98;78.71;98818.80;1742812;82;21518;-64
2021/04/29 04:38:02;;;;;;;6.85;6.25;;;;;;;7.02;78.50;98826.72;1800677;79;21041;-62
2021/04/29 04:40:30;;;;;;;7.72;6.47;;;;;;;7.08;78.43;98811.53;1775617;79;21065;-63
2021/04/29 04:42:57;;;;;;;7.30;6.70;;;;;;;7.14;78.10;98825.44;1805289;79;22169;-62
2021/04/29 04:45:26;;;;;;;7.33;6.15;;;;;;;7.20;77.78;98862.28;1760277;80;21081;-62
2021/04/29 04:47:53;;;;;;;6.58;6.03;;;;;;;7.22;77.67;98825.93;1769697;80;20986;-65
2021/04/29 04:50:21;;;;;;;7.70;6.78;;;;;;;7.25;77.58;98814.99;1775542;79;21167;-62
2021/04/29 04:52:49;;;;;;;7.20;5.55;;;;;;;7.31;77.45;98828.41;1737134;82;21110;-62
2021/04/29 04:55:16;;;;;;;6.55;5.95;;;;;;;7.36;77.20;98819.47;1811785;79;21441;-62
2021/04/29 04:57:44;;;;;;;6.67;6.08;;;;;;;7.45;76.85;98822.46;1785291;79;21175;-61
2021/04/29 05:00:14;;;;;;;8.13;6.15;;;;;;;7.53;76.63;98815.50;1742804;82;20986;-62
2021/04/29 05:02:41;;;;;;;9.05;6.35;;;;;;;7.60;76.42;98826.58;1736268;82;21138;-62
2021/04/29 05:05:10;;;;;;;7.62;6.95;;;;;;;7.64;76.12;98821.27;1754251;79;20942;-63
2021/04/29 05:07:38;;;;;;;6.85;6.10;;;;;;;7.70;75.76;98818.44;1756466;80;21151;-64
2021/04/29 05:10:06;;;;;;;7.62;5.85;;;;;;;7.78;75.49;98823.73;1756356;79;21590;-64
2021/04/29 05:12:34;;;;;;;7.25;6.53;;;;;;;7.91;75.04;98820.06;1730031;82;21167;-62
2021/04/29 05:15:02;;;;;;;7.00;6.40;;;;;;;8.08;74.50;98813.74;1734892;82;21148;-62
2021/04/29 05:17:29;;;;;;;7.78;6.40;;;;;;;8.21;74.02;98808.73;1773531;79;21654;-61
2021/04/29 05:19:57;;;;;;;7.75;7.15;;;;;;;8.37;73.82;98835.17;1793467;79;22328;-62
2021/04/29 05:22:24;;;;;;;6.85;6.25;;;;;;;8.63;72.87;98854.28;1719608;82;21153;-62
2021/04/29 05:24:51;;;;;;;8.48;7.10;;;;;;;8.81;71.75;98812.94;1743936;79;21148;-62
2021/04/29 05:27:19;;;;;;;8.75;6.65;;;;;;;8.99;71.14;98824.10;1749201;80;21606;-62
2021/04/29 05:29:48;;;;;;;7.70;6.90;;;;;;;9.24;70.53;98803.01;1749224;80;21116;-62
2021/04/29 05:32:15;;;;;;;7.15;6.55;;;;;;;9.56;69.16;98811.70;1764641;79;22320;-62
2021/04/29 05:34:43;;;;;;;8.95;6.85;;;;;;;9.94;68.23;98819.95;1753245;79;21617;-63
2021/04/29 05:37:10;;;;;;;7.47;6.67;;;;;;;10.26;66.26;98835.59;1749254;79;21037;-62
2021/04/29 05:39:45;;;;;;;9.53;7.20;;;;;;;10.43;65.36;98832.22;1757728;79;21112;-63
2021/04/29 05:42:13;;;;;;;7.10;6.25;;;;;;;10.48;64.89;98809.38;1773796;80;21164;-63
2021/04/29 05:44:41;;;;;;;7.55;6.45;;;;;;;10.62;64.09;98810.38;1760447;79;21378;-64
2021/04/29 05:47:09;;;;;;;6.30;5.70;;;;;;;10.71;63.80;98827.89;1762230;79;21642;-65
2021/04/29 05:49:37;;;;;;;6.50;5.90;;;;;;;10.94;63.16;98829.89;1764487;79;21045;-64
2021/04/29 05:52:05;;;;;;;5.67;5.22;;;;;;;11.12;62.18;98824.97;1758217;79;21207;-65
2021/04/29 05:54:34;;;;;;;6.10;5.50;;;;;;;11.13;61.56;98822.60;1764597;80;21162;-59
2021/04/29 05:57:02;;;;;;;6.08;5.58;;;;;;;11.13;62.37;98835.91;1753705;79;21382;-61
2021/04/29 05:59:30;;;;;;;6.30;5.80;;;;;;;11.19;61.48;98830.34;1767380;80;21136;-61
2021/04/29 06:01:58;;;;;;;6.45;5.85;;;;;;;11.18;61.14;98815.91;1766322;80;21413;-65
2021/04/29 06:04:28;;;;;;;6.08;5.58;;;;;;;11.14;61.08;98830.09;1717969;81;21136;-62
2021/04/29 06:06:55;;;;;;;6.22;5.62;;;;;;;11.10;61.00;98819.02;1749294;79;21725;-62
2021/04/29 06:09:24;;;;;;;8.00;5.70;;;;;;;10.99;61.24;98832.81;1755171;79;21355;-63
2021/04/29 06:11:52;;;;;;;8.08;6.00;;;;;;;10.96;61.27;98820.37;1707901;82;21144;-64
2021/04/29 06:14:20;;;;;;;8.53;5.80;;;;;;;10.95;61.47;98826.20;1726269;81;21030;-65
2021/04/29 06:16:47;;;;;;;6.12;5.62;;;;;;;11.07;61.34;98834.03;1749296;79;21064;-65
2021/04/29 06:19:15;;;;;;;6.78;5.83;;;;;;;11.23;61.02;98844.94;1750735;79;21132;-65
2021/04/29 06:21:43;;;;;;;5.60;5.20;;;;;;;11.43;60.75;98823.31;1767157;80;21348;-65
2021/04/29 06:24:11;;;;;;;5.87;5.33;;;;;;;11.68;60.35;98805.92;1809049;79;21145;-65
2021/04/29 06:26:38;;;;;;;6.03;5.47;;;;;;;12.01;59.64;98804.84;1723578;83;20941;-61
2021/04/29 06:29:06;;;;;;;5.17;4.67;;;;;;;12.40;58.72;98808.23;1753145;81;21527;-64
2021/04/29 06:31:37;;;;;;;5.67;4.90;;;;;;;12.75;57.21;98804.47;1714645;83;21626;-63
2021/04/29 06:34:25;;;;;;;5.40;4.95;;;;;;;12.97;56.09;98815.33;1753163;81;21405;-63
2021/04/29 06:36:53;;;;;;;5.28;4.87;;;;;;;13.15;55.65;98797.93;1691929;83;21663;-62
2021/04/29 06:39:21;;;;;;;7.40;5.60;;;;;;;13.41;55.17;98819.34;1710032;83;21072;-63
2021/04/29 06:41:50;;;;;;;5.28;4.35;;;;;;;13.63;53.96;98819.47;1696386;84;21117;-63
2021/04/29 06:44:17;;;;;;;5.33;4.83;;;;;;;13.82;53.36;98801.79;1714856;83;21047;-63
2021/04/29 06:46:46;;;;;;;6.75;5.55;;;;;;;14.04;53.30;98797.83;1732396;81;21102;-63
2021/04/29 06:49:14;;;;;;;4.83;4.42;;;;;;;14.32;52.68;98802.42;1738270;81;21225;-62
2021/04/29 06:51:42;;;;;;;5.58;5.08;;;;;;;14.61;51.94;98811.28;1737845;81;20998;-63
2021/04/29 06:54:10;;;;;;;6.08;5.20;;;;;;;14.82;51.00;98819.02;1738160;81;21129;-61
2021/04/29 06:56:37;;;;;;;5.83;4.92;;;;;;;14.98;49.87;98809.67;1738257;81;21039;-63
2021/04/29 06:59:05;;;;;;;4.95;4.55;;;;;;;15.02;49.94;98804.18;1738540;81;21347;-61
2021/04/29 07:01:33;;;;;;;4.78;4.37;;;;;;;15.07;49.49;98806.23;1737837;81;20948;-63
2021/04/29 07:04:01;;;;;;;6.20;4.65;;;;;;;15.02;49.29;98800.16;1738424;81;21129;-61
2021/04/29 07:06:29;;;;;;;5.05;4.50;;;;;;;15.02;49.74;98799.33;1738233;81;20992;-63
2021/04/29 07:08:58;;;;;;;4.87;4.42;;;;;;;15.21;49.21;98801.08;1738128;81;21168;-63
2021/04/29 07:11:27;;;;;;;5.78;5.35;;;;;;;15.32;48.91;98795.04;1738053;81;21450;-63
2021/04/29 07:13:54;;;;;;;5.65;5.15;;;;;;;15.37;48.56;98801.91;1738072;81;21071;-62
2021/04/29 07:16:22;;;;;;;4.62;4.33;;;;;;;15.43;48.82;98808.55;1738086;81;21230;-62
2021/04/29 07:18:52;;;;;;;5.97;4.80;;;;;;;15.60;47.95;98797.33;1738067;81;21130;-64
2021/04/29 07:21:19;;;;;;;5.40;4.95;;;;;;;15.73;48.05;98785.98;1736512;81;21194;-63
2021/04/29 07:23:48;;;;;;;7.92;5.75;;;;;;;15.97;47.00;98809.80;1737357;81;21165;-63
2021/04/29 07:26:16;;;;;;;5.22;4.72;;;;;;;16.02;46.68;98790.66;1737952;81;21072;-62
2021/04/29 07:28:43;;;;;;;5.95;5.45;;;;;;;16.04;46.96;98797.95;1738145;81;21132;-63
2021/04/29 07:31:11;;;;;;;5.70;5.00;;;;;;;16.21;46.36;98803.58;1737975;81;21073;-63
2021/04/29 07:33:40;;;;;;;5.65;5.25;;;;;;;16.21;46.00;98808.12;1738184;81;21559;-62
2021/04/29 07:36:10;;;;;;;7.20;5.97;;;;;;;16.16;46.18;98795.89;1738541;81;21035;-64
2021/04/29 07:38:38;;;;;;;5.80;5.33;;;;;;;16.13;46.19;98796.33;1720347;81;21130;-64
2021/04/29 07:41:08;;;;;;;5.92;5.40;;;;;;;16.02;46.12;98780.45;1742232;81;21173;-64
2021/04/29 07:43:35;;;;;;;5.50;5.00;;;;;;;15.88;46.38;98801.20;1691588;84;20956;-65
2021/04/29 07:46:03;;;;;;;5.45;4.87;;;;;;;15.69;46.86;98767.36;1686461;83;21212;-66
2021/04/29 07:48:31;;;;;;;5.55;5.12;;;;;;;15.70;47.25;98779.70;1742210;81;21353;-62
2021/04/29 07:51:00;;;;;;;5.70;5.22;;;;;;;15.70;46.83;98789.61;1696754;83;21598;-65
2021/04/29 07:53:28;;;;;;;6.50;5.05;;;;;;;15.59;47.27;98797.05;1758132;81;21030;-66
2021/04/29 07:55:55;;;;;;;5.35;4.85;;;;;;;15.54;47.34;98773.55;1757983;81;21175;-64
2021/04/29 07:58:23;;;;;;;9.78;5.60;;;;;;;15.64;47.58;98785.14;1756955;80;20942;-62
2021/04/29 08:00:53;;;;;;;5.12;4.62;;;;;;;15.71;47.19;98777.34;1757238;80;21191;-64
2021/04/29 08:03:20;;;;;;;5.12;4.62;;;;;;;15.79;46.78;98794.49;1758337;80;21017;-64
2021/04/29 08:05:49;;;;;;;4.50;4.10;;;;;;;15.76;46.39;98772.65;1757790;81;20970;-67
2021/04/29 08:08:18;;;;;;;4.87;4.47;;;;;;;15.75;47.23;98786.57;1756815;80;21013;-62
2021/04/29 08:10:46;;;;;;;5.75;4.67;;;;;;;15.95;46.39;98788.57;1753021;81;21204;-62
2021/04/29 08:13:13;;;;;;;6.37;4.80;;;;;;;15.94;46.22;98798.98;1764672;80;21585;-64
2021/04/29 08:15:42;;;;;;;5.55;4.80;;;;;;;16.08;46.25;98794.32;1758012;81;20962;-62
2021/04/29 08:18:10;;;;;;;5.65;5.15;;;;;;;16.39;45.29;98796.05;1758012;81;21125;-63
2021/04/29 08:20:38;;;;;;;5.67;4.95;;;;;;;16.49;45.08;98814.63;1757279;80;21205;-67
2021/04/29 08:23:06;;;;;;;5.03;4.62;;;;;;;16.50;45.39;98791.28;1766603;80;21603;-62
2021/04/29 08:25:34;;;;;;;4.95;4.45;;;;;;;16.66;45.36;98777.25;1759398;80;21215;-64
2021/04/29 08:28:03;;;;;;;4.80;4.40;;;;;;;16.89;44.68;98784.11;1721481;81;21158;-67
2021/04/29 08:30:30;;;;;;;5.50;4.62;;;;;;;17.00;44.16;98781.14;1722200;82;21171;-58
2021/04/29 08:32:59;;;;;;;5.70;5.20;;;;;;;17.05;43.86;98793.40;1722249;81;21245;-61
2021/04/29 08:35:27;;;;;;;6.97;4.60;;;;;;;17.02;43.48;98796.53;1703720;84;21251;-60
2021/04/29 08:37:55;;;;;;;5.30;4.90;;;;;;;17.00;43.79;98789.20;1706796;81;21376;-59
2021/04/29 08:40:24;;;;;;;4.92;4.53;;;;;;;17.15;43.52;98770.27;1769637;80;21130;-59
2021/04/29 08:42:51;;;;;;;7.22;4.83;;;;;;;17.36;43.32;98778.88;1757429;81;21076;-62
2021/04/29 08:45:19;;;;;;;5.25;4.75;;;;;;;17.34;42.82;98783.67;1778515;80;21137;-64
2021/04/29 08:47:53;;;;;;;5.42;4.87;;;;;;;17.25;42.92;98775.94;1777953;80;21168;-65
2021/04/29 08:50:24;;;;;;;4.80;4.40;;;;;;;17.26;43.28;98776.21;1739444;81;21192;-63
2021/04/29 08:52:54;;;;;;;5.45;4.35;;;;;;;17.39;42.87;98759.05;1773787;80;21697;-64
2021/04/29 08:55:25;;;;;;;12.07;4.30;;;;;;;17.51;42.80;98753.70;1761832;80;21137;-54
2021/04/29 08:57:54;;;;;;;5.25;4.75;;;;;;;17.62;42.83;98757.80;1759476;80;21184;-65
2021/04/29 09:00:24;;;;;;;5.17;4.42;;;;;;;17.99;41.96;98761.05;1778150;80;21077;-61
2021/04/29 09:02:57;;;;;;;5.10;4.70;;;;;;;18.51;41.15;98747.69;1739194;81;21410;-65
2021/04/29 09:05:34;;;;;;;5.37;4.50;;;;;;;18.97;39.49;98758.28;1727335;82;20939;-64
2021/04/29 09:08:07;;;;;;;5.25;4.78;;;;;;;19.37;38.70;98742.02;1721879;81;21088;-66
2021/04/29 09:10:42;;;;;;;6.83;4.42;;;;;;;19.37;38.70;98742.02;1728746;81;21476;-67
2021/04/29 09:13:18;;;;;;;4.92;3.87;;;;;;;19.34;38.66;98739.80;1740558;81;20998;-62
2021/04/29 09:15:46;;;;;;;4.95;4.47;;;;;;;19.55;38.56;98731.02;1741381;81;21437;-64
2021/04/29 09:18:18;;;;;;;7.12;4.17;;;;;;;19.79;37.82;98735.14;1726469;81;20974;-67
2021/04/29 09:20:57;;;;;;;4.80;4.20;;;;;;;19.61;37.82;98740.80;1729102;81;21568;-65
2021/04/29 09:23:27;;;;;;;4.72;4.30;;;;;;;19.40;38.57;98716.73;1695736;82;21157;-66
2021/04/29 09:25:57;;;;;;;5.20;4.12;;;;;;;19.99;37.66;98719.27;1740831;80;21078;-69
2021/04/29 09:28:41;;;;;;;4.55;4.15;;;;;;;19.99;37.66;98719.27;1730938;80;21330;-62
2021/04/29 09:31:13;;;;;;;5.62;3.65;;;;;;;20.19;37.19;98709.26;1740886;80;21243;-61
2021/04/29 09:33:54;;;;;;;4.53;4.10;;;;;;;20.12;36.99;98712.16;1763629;80;21025;-69
2021/04/29 09:36:31;;;;;;;4.53;3.80;;;;;;;19.77;37.68;98730.53;1759485;80;21140;-63
2021/04/29 09:39:07;;;;;;;5.20;4.50;;;;;;;19.63;37.63;98741.40;1738951;82;21034;-65
2021/04/29 09:41:47;;;;;;;8.48;4.55;;;;;;;19.41;38.19;98715.69;1748185;82;21204;-62
2021/04/29 09:44:22;;;;;;;4.50;4.10;;;;;;;19.47;38.57;98717.41;1740816;82;21002;-62
2021/04/29 09:47:01;;;;;;;5.12;3.58;;;;;;;19.81;37.89;98703.36;1747378;81;21004;-68
2021/04/29 09:49:34;;;;;;;7.72;3.50;;;;;;;20.40;36.83;98694.98;1746742;82;21014;-65
2021/04/29 09:52:04;;;;;;;4.72;3.77;;;;;;;20.39;36.31;98699.30;1748214;82;21174;-61
2021/04/29 09:54:37;;;;;;;3.67;3.30;;;;;;;19.89;36.96;98690.79;1751017;82;21265;-63
2021/04/29 09:57:07;;;;;;;5.25;3.37;;;;;;;19.38;37.78;98705.37;1754394;80;21115;-64
2021/04/29 09:59:41;;;;;;;4.20;3.52;;;;;;;18.72;38.80;98693.15;1747106;80;21120;-65
2021/04/29 10:02:06;;;;;;;4.45;3.62;;;;;;;18.18;39.78;98686.38;1748694;82;22039;-65
2021/04/29 10:04:34;;;;;;;3.70;3.40;;;;;;;17.63;40.93;98690.84;1747867;82;21160;-67
2021/04/29 10:07:02;;;;;;;5.62;4.17;;;;;;;17.42;41.40;98694.07;1748212;82;22770;-63
2021/04/29 10:09:32;;;;;;;4.17;3.60;;;;;;;17.38;41.56;98707.70;1745768;82;21086;-59
2021/04/29 10:12:11;;;;;;;3.67;3.40;;;;;;;17.23;41.82;98713.50;1748013;82;21105;-65
2021/04/29 10:14:50;;;;;;;5.15;3.30;;;;;;;17.04;41.91;98706.59;1738896;82;21105;-60
2021/04/29 10:17:20;;;;;;;7.45;4.05;;;;;;;16.89;42.43;98700.83;1745601;80;21111;-63
2021/04/29 10:19:52;;;;;;;4.75;3.83;;;;;;;16.78;43.10;98711.00;1739065;82;21195;-62
2021/04/29 10:22:22;;;;;;;6.58;4.03;;;;;;;16.67;43.24;98702.38;1751010;82;21202;-62
2021/04/29 10:24:50;;;;;;;5.50;3.98;;;;;;;16.59;43.39;98704.03;1725663;82;21032;-61
2021/04/29 10:27:26;;;;;;;3.20;2.90;;;;;;;16.45;43.62;98715.98;1749067;82;21013;-62
2021/04/29 10:30:34;;;;;;;4.12;3.52;;;;;;;16.50;44.00;98701.34;1751179;82;21111;-62
2021/04/29 10:33:17;;;;;;;3.50;3.17;;;;;;;16.55;43.52;98694.80;1665903;85;21394;-63
2021/04/29 10:36:00;;;;;;;3.90;3.58;;;;;;;16.48;44.00;98690.81;1650266;86;21104;-62
2021/04/29 10:38:32;;;;;;;4.58;3.67;;;;;;;16.56;43.82;98687.02;1662993;85;21659;-62
2021/04/29 10:41:22;;;;;;;4.92;3.98;;;;;;;16.58;44.15;98679.04;1632996;87;21177;-65
2021/04/29 10:43:52;;;;;;;8.18;3.83;;;;;;;16.62;43.51;98684.78;1651999;86;21239;-62
2021/04/29 10:46:33;;;;;;;8.83;4.12;;;;;;;16.61;43.42;98691.19;1649803;85;21456;-67
2021/04/29 10:49:01;;;;;;;3.80;3.55;;;;;;;16.63;43.58;98677.83;1649319;85;21227;-66
2021/04/29 10:51:34;;;;;;;3.83;3.52;;;;;;;16.61;43.56;98679.11;1669230;86;21176;-64
2021/04/29 10:54:20;;;;;;;5.35;4.10;;;;;;;16.56;43.65;98676.28;1656792;86;21240;-67
2021/04/29 10:57:15;;;;;;;4.45;3.90;;;;;;;16.52;43.57;98681.31;1665795;86;21908;-61
2021/04/29 10:59:49;;;;;;;4.35;3.95;;;;;;;16.42;43.68;98682.87;1648453;86;21456;-60
2021/04/29 11:02:35;;;;;;;3.98;3.67;;;;;;;16.33;43.94;98682.34;1663677;85;21216;-63
2021/04/29 11:05:08;;;;;;;4.03;3.65;;;;;;;16.18;44.25;98673.05;1642567;85;21018;-62
2021/04/29 11:07:47;;;;;;;5.55;4.28;;;;;;;16.06;44.87;98679.68;1668612;85;21149;-63
2021/04/29 11:10:16;;;;;;;4.62;3.35;;;;;;;16.02;44.99;98686.03;1649822;85;21188;-66
2021/04/29 11:12:48;;;;;;;6.50;3.75;;;;;;;15.94;45.21;98687.67;1668099;85;21207;-62
2021/04/29 11:15:36;;;;;;;6.87;3.75;;;;;;;15.91;45.09;98672.02;1667187;84;21190;-60
2021/04/29 11:18:12;;;;;;;6.87;3.40;;;;;;;15.94;45.35;98668.89;1668767;86;21068;-62
2021/04/29 11:20:54;;;;;;;4.58;3.83;;;;;;;15.98;45.52;98669.28;1665158;86;21626;-62
2021/04/29 11:23:38;;;;;;;7.05;3.62;;;;;;;15.99;45.71;98660.17;1646846;86;21077;-63
2021/04/29 11:26:08;;;;;;;8.75;4.00;;;;;;;15.98;45.63;98657.20;1668795;85;21375;-60
2021/04/29 11:28:38;;;;;;;4.45;3.95;;;;;;;15.91;45.79;98661.29;1640092;86;21094;-60
2021/04/29 11:31:06;;;;;;;3.98;3.47;;;;;;;15.91;45.58;98658.61;1665566;84;21244;-62
2021/04/29 11:33:36;;;;;;;5.28;3.45;;;;;;;15.87;45.61;98657.44;1696280;84;21177;-64
2021/04/29 11:36:20;;;;;;;3.62;3.20;;;;;;;15.89;45.84;98659.87;1696497;84;21479;-60
2021/04/29 11:39:04;;;;;;;4.95;3.65;;;;;;;15.86;45.93;98654.44;1696360;84;21445;-59
2021/04/29 11:41:32;;;;;;;4.83;3.37;;;;;;;15.89;45.92;98651.83;1610050;87;21161;-64
2021/04/29 11:44:03;;;;;;;7.40;3.60;;;;;;;15.95;46.05;98649.09;1629056;86;21648;-61
2021/04/29 11:46:34;;;;;;;6.85;3.70;;;;;;;16.01;45.95;98658.90;1643261;87;21623;-65
2021/04/29 11:49:06;;;;;;;3.65;3.35;;;;;;;16.04;45.83;98672.38;1631198;86;21174;-65
2021/04/29 11:51:37;;;;;;;4.67;3.40;;;;;;;16.09;45.59;98664.48;1688259;84;21426;-61